createdAt,value
2023-03-05T00:01:41.666Z,13.60
2023-03-05T00:04:15.222Z,12.00
2023-03-05T00:06:45.275Z,11.40
2023-03-05T00:09:14.538Z,9.30
2023-03-05T00:11:43.164Z,9.60
2023-03-05T00:14:12.836Z,10.10
2023-03-05T00:16:41.546Z,10.30
2023-03-05T00:19:11.219Z,9.30
2023-03-05T00:21:41.495Z,10.20
2023-03-05T00:24:18.892Z,8.60
2023-03-05T00:26:47.648Z,9.10
2023-03-05T00:29:24.238Z,9.60
2023-03-05T00:31:52.564Z,10.00
2023-03-05T00:34:21.316Z,10.00
2023-03-05T00:36:52.140Z,9.40
2023-03-05T00:39:21.914Z,9.10
2023-03-05T00:41:54.350Z,10.80
2023-03-05T00:44:22.575Z,9.80
2023-03-05T00:46:51.185Z,9.20
2023-03-05T00:49:19.705Z,9.10
2023-03-05T00:51:48.094Z,10.20
2023-03-05T00:54:16.462Z,9.70
2023-03-05T00:56:45.314Z,9.80
2023-03-05T00:59:13.878Z,9.50
2023-03-05T01:01:42.263Z,11.00
2023-03-05T01:04:10.737Z,9.10
2023-03-05T01:06:43.009Z,9.90
2023-03-05T01:09:11.665Z,10.70
2023-03-05T01:11:40.563Z,11.40
2023-03-05T01:14:09.048Z,9.80
2023-03-05T01:16:37.443Z,10.20
2023-03-05T01:19:06.151Z,10.80
2023-03-05T01:21:36.208Z,10.40
2023-03-05T01:24:06.726Z,9.90
2023-03-05T01:26:35.024Z,10.50
2023-03-05T01:29:03.908Z,10.40
2023-03-05T01:31:32.362Z,10.80
2023-03-05T01:34:01.088Z,10.00
2023-03-05T01:36:29.642Z,10.00
2023-03-05T01:38:58.323Z,9.20
2023-03-05T01:41:27.420Z,8.00
2023-03-05T01:43:58.081Z,8.70
2023-03-05T01:46:39.413Z,9.10
2023-03-05T01:49:17.357Z,8.20
2023-03-05T01:52:01.218Z,7.80
2023-03-05T01:54:46.682Z,8.10
2023-03-05T01:57:18.523Z,8.20
2023-03-05T01:59:51.164Z,7.70
2023-03-05T02:02:22.272Z,7.80
2023-03-05T02:04:55.194Z,7.20
2023-03-05T02:07:25.151Z,7.90
2023-03-05T02:09:54.395Z,6.70
2023-03-05T02:12:23.148Z,6.50
2023-03-05T02:14:59.408Z,7.70
2023-03-05T02:17:28.792Z,7.80
2023-03-05T02:20:08.667Z,6.90
2023-03-05T02:22:37.194Z,7.20
2023-03-05T02:25:31.777Z,6.30
2023-03-05T02:28:09.113Z,6.10
2023-03-05T02:30:37.712Z,5.70
2023-03-05T02:33:06.161Z,6.10
2023-03-05T02:35:35.282Z,6.40
2023-03-05T02:38:03.986Z,6.30
2023-03-05T02:40:32.468Z,6.30
2023-03-05T02:43:00.891Z,6.50
2023-03-05T02:45:29.435Z,6.70
2023-03-05T02:47:57.917Z,6.50
2023-03-05T02:50:28.339Z,5.80
2023-03-05T02:52:56.645Z,6.20
2023-03-05T02:55:24.800Z,5.40
2023-03-05T02:57:53.802Z,6.20
2023-03-05T03:00:22.694Z,6.60
2023-03-05T03:02:51.019Z,7.30
2023-03-05T03:05:19.357Z,6.80
2023-03-05T03:07:48.756Z,7.10
2023-03-05T03:10:17.645Z,6.10
2023-03-05T03:12:46.142Z,5.80
2023-03-05T03:15:16.685Z,5.70
2023-03-05T03:17:45.664Z,5.50
2023-03-05T03:20:16.926Z,5.70
2023-03-05T03:22:47.854Z,4.90
2023-03-05T03:25:23.296Z,4.80
2023-03-05T03:27:51.780Z,5.00
2023-03-05T03:30:20.220Z,4.90
2023-03-05T03:32:49.266Z,5.10
2023-03-05T03:35:17.775Z,5.20
2023-03-05T03:37:46.040Z,5.10
2023-03-05T03:40:18.039Z,5.00
2023-03-05T03:42:46.408Z,5.50
2023-03-05T03:45:14.804Z,5.60
2023-03-05T03:47:43.080Z,5.30
2023-03-05T03:50:11.889Z,5.30
2023-03-05T03:52:41.149Z,5.80
2023-03-05T03:55:12.877Z,5.80
2023-03-05T03:57:41.548Z,5.40
2023-03-05T04:00:11.733Z,5.50
2023-03-05T04:02:40.363Z,6.40
2023-03-05T04:05:09.337Z,7.40
2023-03-05T04:07:37.397Z,8.50
2023-03-05T04:10:06.340Z,11.40
2023-03-05T04:12:34.973Z,6.60
2023-03-05T04:15:03.370Z,18.00
2023-03-05T04:17:32.966Z,7.00
2023-03-05T04:20:02.020Z,6.90
2023-03-05T04:22:30.426Z,7.00
2023-03-05T04:24:59.272Z,6.10
2023-03-05T04:27:28.632Z,5.90
2023-03-05T04:29:56.731Z,5.70
2023-03-05T04:32:30.127Z,5.20
2023-03-05T04:34:58.955Z,5.30
2023-03-05T04:37:27.388Z,5.80
2023-03-05T04:39:55.781Z,5.20
2023-03-05T04:42:24.361Z,5.40
2023-03-05T04:44:52.894Z,6.10
2023-03-05T04:47:21.560Z,4.80
2023-03-05T04:49:49.898Z,4.40
2023-03-05T04:52:21.045Z,4.80
2023-03-05T04:54:49.395Z,4.80
2023-03-05T04:57:18.234Z,4.60
2023-03-05T04:59:46.522Z,5.30
2023-03-05T05:02:15.242Z,5.20
2023-03-05T05:04:46.338Z,5.00
2023-03-05T05:07:17.897Z,4.80
2023-03-05T05:09:46.526Z,4.70
2023-03-05T05:12:15.039Z,4.90
2023-03-05T05:14:44.264Z,4.80
2023-03-05T05:17:14.182Z,4.60
2023-03-05T05:19:42.802Z,4.70
2023-03-05T05:22:11.189Z,4.90
2023-03-05T05:24:39.279Z,4.20
2023-03-05T05:27:08.404Z,4.60
2023-03-05T05:29:38.952Z,4.90
2023-03-05T05:32:07.699Z,5.30
2023-03-05T05:34:36.099Z,5.00
2023-03-05T05:37:04.588Z,3.60
2023-03-05T05:39:32.916Z,3.70
2023-03-05T05:42:01.192Z,3.20
2023-03-05T05:44:29.586Z,3.50
2023-03-05T05:46:57.850Z,3.60
2023-03-05T05:49:26.480Z,3.30
2023-03-05T05:51:54.931Z,3.00
2023-03-05T05:54:23.353Z,3.00
2023-03-05T05:56:52.132Z,2.90
2023-03-05T05:59:20.511Z,2.60
2023-03-05T06:01:49.456Z,2.70
2023-03-05T06:04:17.899Z,2.60
2023-03-05T06:06:46.617Z,3.00
2023-03-05T06:09:15.599Z,2.80
2023-03-05T06:11:44.058Z,3.10
2023-03-05T06:14:13.205Z,2.80
2023-03-05T06:16:42.135Z,3.10
2023-03-05T06:19:15.442Z,3.30
2023-03-05T06:21:44.394Z,3.40
2023-03-05T06:24:14.271Z,2.80
2023-03-05T06:26:46.994Z,2.80
2023-03-05T06:29:15.640Z,2.80
2023-03-05T06:31:44.296Z,2.90
2023-03-05T06:34:12.589Z,2.70
2023-03-05T06:36:40.823Z,3.60
2023-03-05T06:39:10.479Z,2.90
2023-03-05T06:41:38.704Z,3.60
2023-03-05T06:44:07.190Z,3.50
2023-03-05T06:46:39.967Z,2.90
2023-03-05T06:49:09.764Z,3.30
2023-03-05T06:51:40.395Z,3.90
2023-03-05T06:54:15.448Z,3.30
2023-03-05T06:56:47.640Z,4.30
2023-03-05T06:59:17.219Z,5.40
2023-03-05T07:01:45.860Z,6.00
2023-03-05T07:04:15.972Z,5.60
2023-03-05T07:06:44.327Z,5.50
2023-03-05T07:09:15.640Z,5.90
2023-03-05T07:11:44.065Z,7.00
2023-03-05T07:14:13.557Z,6.50
2023-03-05T07:16:41.662Z,6.70
2023-03-05T07:19:11.853Z,6.30
2023-03-05T07:21:41.872Z,7.90
2023-03-05T07:24:12.655Z,8.90
2023-03-05T07:26:40.887Z,8.00
2023-03-05T07:29:09.963Z,7.10
2023-03-05T07:31:38.400Z,7.60
2023-03-05T07:34:07.010Z,7.80
2023-03-05T07:36:35.527Z,8.40
2023-03-05T07:39:07.858Z,7.50
2023-03-05T07:41:36.063Z,6.70
2023-03-05T07:44:04.530Z,6.80
2023-03-05T07:46:34.245Z,7.70
2023-03-05T07:49:02.856Z,7.10
2023-03-05T07:51:33.242Z,6.90
2023-03-05T07:54:02.856Z,6.10
2023-03-05T07:56:35.682Z,6.00
2023-03-05T07:59:07.346Z,6.00
2023-03-05T08:01:36.131Z,6.10
2023-03-05T08:04:06.130Z,6.50
2023-03-05T08:06:34.783Z,12.70
2023-03-05T08:09:03.199Z,7.10
2023-03-05T08:11:31.502Z,7.80
2023-03-05T08:14:01.237Z,5.00
2023-03-05T08:16:29.520Z,5.60
2023-03-05T08:18:58.754Z,4.70
2023-03-05T08:21:35.109Z,4.60
2023-03-05T08:24:07.323Z,4.10
2023-03-05T08:26:38.762Z,5.00
2023-03-05T08:29:08.723Z,5.20
2023-03-05T08:31:39.223Z,4.70
2023-03-05T08:34:07.915Z,4.40
2023-03-05T08:36:36.005Z,4.30
2023-03-05T08:39:07.087Z,4.60
2023-03-05T08:41:36.303Z,5.70
2023-03-05T08:44:05.244Z,4.60
2023-03-05T08:46:33.924Z,4.40
2023-03-05T08:49:02.909Z,4.30
2023-03-05T08:51:32.347Z,4.40
2023-03-05T08:54:02.474Z,3.80
2023-03-05T08:56:31.691Z,4.60
2023-03-05T08:59:00.545Z,4.50
2023-03-05T09:01:30.846Z,4.50
2023-03-05T09:04:00.537Z,3.70
2023-03-05T09:06:28.755Z,4.70
2023-03-05T09:09:00.830Z,3.50
2023-03-05T09:11:36.367Z,4.70
2023-03-05T09:14:06.437Z,3.90
2023-03-05T09:16:36.999Z,4.70
2023-03-05T09:19:05.524Z,5.70
2023-03-05T09:21:34.282Z,7.70
2023-03-05T09:24:03.491Z,9.70
2023-03-05T09:26:32.172Z,9.30
2023-03-05T09:29:00.430Z,11.30
2023-03-05T09:31:29.207Z,12.10
2023-03-05T09:33:57.628Z,26.80
2023-03-05T09:36:31.605Z,20.00
2023-03-05T09:39:00.379Z,12.60
2023-03-05T09:41:54.874Z,16.20
2023-03-05T09:44:24.030Z,7.50
2023-03-05T09:46:56.063Z,7.10
2023-03-05T09:49:34.468Z,7.90
2023-03-05T09:52:14.241Z,7.80
2023-03-05T09:54:44.909Z,6.40
2023-03-05T09:57:19.583Z,6.60
2023-03-05T09:59:50.975Z,7.30
2023-03-05T10:02:26.250Z,6.30
2023-03-05T10:05:01.071Z,7.30
2023-03-05T10:07:34.622Z,6.30
2023-03-05T10:10:27.716Z,5.90
2023-03-05T10:13:13.978Z,7.50
2023-03-05T10:15:52.435Z,7.00
2023-03-05T10:18:49.310Z,6.40
2023-03-05T10:21:47.453Z,6.40
2023-03-05T10:24:26.115Z,7.00
2023-03-05T10:27:14.398Z,8.00
2023-03-05T10:29:52.298Z,6.30
2023-03-05T10:32:58.728Z,5.90
2023-03-05T10:35:45.838Z,6.20
2023-03-05T10:38:53.753Z,6.70
2023-03-05T10:41:53.552Z,12.90
2023-03-05T10:44:35.367Z,9.50
2023-03-05T10:47:13.180Z,7.80
2023-03-05T10:49:53.324Z,6.40
2023-03-05T10:52:37.889Z,6.40
2023-03-05T10:55:26.952Z,7.10
2023-03-05T10:57:56.330Z,6.10
2023-03-05T11:00:28.537Z,5.70
2023-03-05T11:03:08.486Z,5.50
2023-03-05T11:06:04.864Z,5.90
2023-03-05T11:08:36.299Z,6.70
2023-03-05T11:11:10.393Z,5.90
2023-03-05T11:13:58.809Z,5.90
2023-03-05T11:16:30.250Z,6.70
2023-03-05T11:19:17.972Z,5.70
2023-03-05T11:22:05.121Z,5.60
2023-03-05T11:24:34.170Z,5.90
2023-03-05T11:27:38.212Z,5.00
2023-03-05T11:30:26.429Z,6.00
2023-03-05T11:33:10.549Z,4.60
2023-03-05T11:35:42.354Z,4.50
2023-03-05T11:38:26.948Z,3.40
2023-03-05T11:40:58.965Z,4.40
2023-03-05T11:43:27.455Z,3.20
2023-03-05T11:46:05.971Z,3.20
2023-03-05T11:48:39.185Z,2.80
2023-03-05T11:51:25.869Z,2.80
2023-03-05T11:54:12.368Z,2.50
2023-03-05T11:56:44.063Z,3.20
2023-03-05T11:59:19.263Z,3.70
2023-03-05T12:01:54.298Z,3.70
2023-03-05T12:04:22.894Z,3.80
2023-03-05T12:07:04.688Z,4.30
2023-03-05T12:09:49.664Z,3.90
2023-03-05T12:12:36.384Z,3.20
2023-03-05T12:15:26.273Z,3.30
2023-03-05T12:18:14.862Z,3.60
2023-03-05T12:21:21.004Z,3.70
2023-03-05T12:24:06.513Z,3.70
2023-03-05T12:26:53.283Z,3.60
2023-03-05T12:29:31.525Z,4.40
2023-03-05T12:32:02.361Z,3.80
2023-03-05T12:34:43.081Z,3.70
2023-03-05T12:37:13.983Z,3.70
2023-03-05T12:39:49.812Z,3.80
2023-03-05T12:42:30.269Z,4.00
2023-03-05T12:45:14.803Z,3.90
2023-03-05T12:48:12.967Z,4.70
2023-03-05T12:50:43.557Z,4.90
2023-03-05T12:53:15.604Z,4.50
2023-03-05T12:55:45.901Z,3.50
2023-03-05T12:58:32.516Z,4.10
2023-03-05T13:01:20.246Z,4.90
2023-03-05T13:04:21.799Z,4.10
2023-03-05T13:07:04.786Z,4.50
2023-03-05T13:09:36.754Z,5.10
2023-03-05T13:12:13.512Z,5.20
2023-03-05T13:15:03.802Z,4.80
2023-03-05T13:17:44.712Z,5.30
2023-03-05T13:20:30.738Z,5.90
2023-03-05T13:23:22.888Z,6.10
2023-03-05T13:26:19.027Z,4.60
2023-03-05T13:29:14.112Z,5.20
2023-03-05T13:31:52.136Z,4.60
2023-03-05T13:34:46.706Z,4.50
2023-03-05T13:37:22.160Z,4.50
2023-03-05T13:39:52.889Z,4.40
2023-03-05T13:42:28.849Z,4.10
2023-03-05T13:44:59.561Z,4.50
2023-03-05T13:47:30.859Z,5.80
2023-03-05T13:50:06.322Z,5.20
2023-03-05T13:52:38.073Z,4.60
2023-03-05T13:55:15.699Z,4.30
2023-03-05T13:57:45.296Z,5.60
2023-03-05T14:00:31.664Z,5.80
2023-03-05T14:03:25.255Z,4.50
2023-03-05T14:05:54.571Z,3.70
2023-03-05T14:08:27.365Z,3.80
2023-03-05T14:10:57.785Z,3.50
2023-03-05T14:13:30.004Z,3.90
2023-03-05T14:16:25.924Z,4.50
2023-03-05T14:18:59.503Z,4.70
2023-03-05T14:21:46.504Z,4.20
2023-03-05T14:24:22.912Z,4.80
2023-03-05T14:26:54.402Z,4.70
2023-03-05T14:29:25.430Z,5.10
2023-03-05T14:31:59.237Z,4.90
2023-03-05T14:34:42.462Z,4.10
2023-03-05T14:37:24.847Z,4.60
2023-03-05T14:40:13.639Z,4.60
2023-03-05T14:42:56.215Z,4.90
2023-03-05T14:45:32.016Z,4.70
2023-03-05T14:48:03.112Z,4.90
2023-03-05T14:50:44.211Z,5.00
2023-03-05T14:53:18.429Z,5.60
2023-03-05T14:55:50.613Z,6.00
2023-03-05T14:58:22.352Z,5.10
2023-03-05T15:00:51.424Z,5.60
2023-03-05T15:03:21.362Z,6.80
2023-03-05T15:05:52.812Z,6.90
2023-03-05T15:08:29.571Z,7.10
2023-03-05T15:11:00.066Z,7.60
2023-03-05T15:13:28.605Z,10.70
2023-03-05T15:15:57.620Z,9.40
2023-03-05T15:18:26.089Z,7.90
2023-03-05T15:20:59.186Z,4.30
2023-03-05T15:23:30.147Z,5.10
2023-03-05T15:25:58.619Z,23.70
2023-03-05T15:28:27.303Z,5.70
2023-03-05T15:30:58.225Z,5.00
2023-03-05T15:33:32.153Z,5.50
2023-03-05T15:36:05.942Z,4.80
2023-03-05T15:38:43.494Z,3.50
2023-03-05T15:41:17.334Z,3.60
2023-03-05T15:43:50.563Z,3.50
2023-03-05T15:46:23.379Z,2.80
2023-03-05T15:48:55.038Z,3.60
2023-03-05T15:51:27.338Z,3.70
2023-03-05T15:54:01.715Z,4.60
2023-03-05T15:56:34.310Z,4.90
2023-03-05T15:59:06.282Z,3.80
2023-03-05T16:01:39.444Z,3.30
2023-03-05T16:04:14.073Z,4.10
2023-03-05T16:06:48.638Z,4.90
2023-03-05T16:09:21.509Z,3.60
2023-03-05T16:11:54.266Z,3.90
2023-03-05T16:14:32.700Z,3.80
2023-03-05T16:17:05.449Z,4.70
2023-03-05T16:19:39.559Z,4.20
2023-03-05T16:22:08.137Z,3.60
2023-03-05T16:24:37.778Z,4.00
2023-03-05T16:27:06.585Z,4.30
2023-03-05T16:29:34.791Z,5.20
2023-03-05T16:32:04.798Z,6.10
2023-03-05T16:34:34.940Z,13.30
2023-03-05T16:37:07.131Z,16.90
2023-03-05T16:39:35.667Z,16.20
2023-03-05T16:42:05.274Z,14.40
2023-03-05T16:44:33.984Z,10.50
2023-03-05T16:47:03.115Z,7.00
2023-03-05T16:49:31.654Z,7.50
2023-03-05T16:52:06.204Z,6.50
2023-03-05T16:54:45.762Z,7.10
2023-03-05T16:57:15.537Z,9.60
2023-03-05T16:59:45.911Z,9.70
2023-03-05T17:02:15.526Z,9.50
2023-03-05T17:04:45.205Z,9.80
2023-03-05T17:07:14.154Z,9.00
2023-03-05T17:09:44.836Z,9.60
2023-03-05T17:12:13.252Z,9.50
2023-03-05T17:14:46.585Z,9.80
2023-03-05T17:17:17.855Z,9.30
2023-03-05T17:19:46.147Z,10.50
2023-03-05T17:22:16.328Z,9.90
2023-03-05T17:24:48.391Z,8.70
2023-03-05T17:27:19.153Z,8.90
2023-03-05T17:29:47.623Z,7.70
2023-03-05T17:32:16.362Z,8.90
2023-03-05T17:34:45.005Z,8.20
2023-03-05T17:37:14.792Z,12.40
2023-03-05T17:39:43.204Z,22.10
2023-03-05T17:42:11.738Z,13.30
2023-03-05T17:44:40.117Z,12.80
2023-03-05T17:47:09.255Z,12.70
2023-03-05T17:49:37.950Z,14.60
2023-03-05T17:52:06.543Z,20.60
2023-03-05T17:54:34.846Z,15.90
2023-03-05T17:57:04.226Z,14.20
2023-03-05T17:59:33.864Z,17.30
2023-03-05T18:02:02.817Z,20.10
2023-03-05T18:04:31.174Z,19.40
2023-03-05T18:06:59.868Z,19.90
2023-03-05T18:09:27.978Z,17.30
2023-03-05T18:11:56.579Z,15.30
2023-03-05T18:14:25.336Z,15.20
2023-03-05T18:16:55.356Z,17.40
2023-03-05T18:19:25.684Z,17.70
2023-03-05T18:21:54.485Z,17.40
2023-03-05T18:24:22.841Z,23.40
2023-03-05T18:26:51.481Z,20.20
2023-03-05T18:29:21.052Z,17.20
2023-03-05T18:31:50.254Z,15.80
2023-03-05T18:34:19.519Z,15.20
2023-03-05T18:36:48.466Z,14.50
2023-03-05T18:39:18.962Z,15.70
2023-03-05T18:41:50.435Z,19.60
2023-03-05T18:44:20.685Z,32.70
2023-03-05T18:46:49.564Z,34.40
2023-03-05T18:49:17.905Z,42.00
2023-03-05T18:51:47.430Z,46.40
2023-03-05T18:54:21.190Z,40.40
2023-03-05T18:56:49.760Z,39.10
2023-03-05T18:59:18.393Z,37.80
2023-03-05T19:01:47.275Z,36.90
2023-03-05T19:04:15.643Z,36.70
2023-03-05T19:06:44.343Z,33.00
2023-03-05T19:09:42.496Z,35.60
2023-03-05T19:12:11.496Z,30.60
2023-03-05T19:14:40.115Z,29.80
2023-03-05T19:17:08.876Z,18.70
2023-03-05T19:19:37.397Z,18.70
2023-03-05T19:22:05.923Z,20.60
2023-03-05T19:24:38.765Z,20.80
2023-03-05T19:27:11.788Z,14.60
2023-03-05T19:29:43.918Z,14.00
2023-03-05T19:32:17.986Z,9.50
2023-03-05T19:34:46.709Z,9.90
2023-03-05T19:37:15.662Z,10.90
2023-03-05T19:39:44.103Z,12.10
2023-03-05T19:42:14.098Z,40.70
2023-03-05T19:44:42.792Z,17.30
2023-03-05T19:47:14.724Z,32.00
2023-03-05T19:49:43.924Z,30.60
2023-03-05T19:52:14.265Z,26.00
2023-03-05T19:54:42.739Z,25.80
2023-03-05T19:57:12.311Z,37.30
2023-03-05T19:59:40.699Z,22.80
2023-03-05T20:02:12.083Z,23.40
2023-03-05T20:04:41.779Z,17.80
2023-03-05T20:07:12.276Z,17.60
2023-03-05T20:09:43.144Z,12.40
2023-03-05T20:12:11.993Z,11.90
2023-03-05T20:14:40.262Z,9.50
2023-03-05T20:17:08.513Z,8.60
2023-03-05T20:19:37.019Z,8.80
2023-03-05T20:22:06.292Z,7.60
2023-03-05T20:24:35.745Z,23.20
2023-03-05T20:27:04.571Z,12.30
2023-03-05T20:29:32.881Z,14.80
2023-03-05T20:32:03.303Z,18.10
2023-03-05T20:34:32.461Z,24.80
2023-03-05T20:37:05.186Z,14.60
2023-03-05T20:39:33.592Z,15.80
2023-03-05T20:42:03.360Z,14.20
2023-03-05T20:44:32.034Z,14.20
2023-03-05T20:47:23.019Z,16.70
2023-03-05T20:49:57.868Z,15.60
2023-03-05T20:52:26.373Z,22.30
2023-03-05T20:54:54.832Z,14.40
2023-03-05T20:57:24.158Z,15.00
2023-03-05T20:59:56.969Z,12.90
2023-03-05T21:02:27.706Z,13.20
2023-03-05T21:04:57.684Z,12.70
2023-03-05T21:07:32.437Z,12.20
2023-03-05T21:10:08.294Z,12.10
2023-03-05T21:12:39.154Z,13.40
2023-03-05T21:15:09.497Z,11.20
2023-03-05T21:17:38.658Z,11.90
2023-03-05T21:20:09.892Z,10.30
2023-03-05T21:22:38.060Z,10.30
2023-03-05T21:25:27.839Z,13.00
2023-03-05T21:27:56.253Z,10.20
2023-03-05T21:30:31.595Z,10.10
2023-03-05T21:33:01.375Z,9.40
2023-03-05T21:35:32.750Z,9.10
2023-03-05T21:38:02.437Z,9.50
2023-03-05T21:40:31.926Z,14.40
2023-03-05T21:43:00.610Z,14.40
2023-03-05T21:45:30.608Z,19.90
2023-03-05T21:48:01.883Z,23.70
2023-03-05T21:50:30.157Z,22.90
2023-03-05T21:52:59.267Z,21.60
2023-03-05T21:55:33.542Z,22.40
2023-03-05T21:58:03.275Z,24.90
2023-03-05T22:00:31.785Z,27.20
2023-03-05T22:03:00.636Z,28.20
2023-03-05T22:05:29.052Z,24.40
2023-03-05T22:07:58.046Z,21.40
2023-03-05T22:10:26.410Z,21.50
2023-03-05T22:13:12.510Z,20.80
2023-03-05T22:15:52.296Z,21.40
2023-03-05T22:18:23.728Z,20.20
2023-03-05T22:20:53.109Z,18.10
2023-03-05T22:23:24.566Z,17.60
2023-03-05T22:25:58.102Z,15.80
2023-03-05T22:28:30.278Z,13.30
2023-03-05T22:30:58.907Z,13.00
2023-03-05T22:33:27.889Z,12.20
2023-03-05T22:35:56.672Z,12.40
2023-03-05T22:38:25.633Z,10.50
2023-03-05T22:40:53.990Z,11.20
2023-03-05T22:43:22.502Z,12.30
2023-03-05T22:45:53.798Z,12.70
2023-03-05T22:48:22.201Z,12.90
2023-03-05T22:50:56.323Z,12.20
2023-03-05T22:53:24.828Z,11.90
2023-03-05T22:55:53.127Z,12.30
2023-03-05T22:58:21.243Z,12.30
2023-03-05T23:00:49.824Z,12.30
2023-03-05T23:03:18.614Z,13.40
2023-03-05T23:05:46.768Z,13.30
2023-03-05T23:08:15.267Z,14.20
2023-03-05T23:10:43.820Z,15.20
2023-03-05T23:13:12.393Z,15.40
2023-03-05T23:15:40.583Z,16.00
2023-03-05T23:18:09.480Z,14.00
2023-03-05T23:20:38.013Z,14.50
2023-03-05T23:23:07.241Z,14.30
2023-03-05T23:25:36.996Z,14.70
2023-03-05T23:28:05.932Z,14.50
2023-03-05T23:30:39.298Z,15.20
2023-03-05T23:33:19.962Z,15.70
2023-03-05T23:35:57.608Z,16.60
2023-03-05T23:38:29.076Z,16.00
2023-03-05T23:41:01.504Z,16.00
2023-03-05T23:43:30.676Z,15.70
2023-03-05T23:46:00.632Z,17.00
2023-03-05T23:48:30.848Z,17.00
2023-03-05T23:50:59.545Z,17.10
2023-03-05T23:53:31.384Z,17.50
2023-03-05T23:55:59.706Z,16.90
2023-03-05T23:58:28.398Z,15.00
